Time;durP1;ratioP1;P1;durP2;ratioP2;P2;SDS_P1;SDS_P2;PMS_P1;PMS_P2;Temp;Humidity;BMP_temperature;BMP_pressure;BME280_temperature;BME280_humidity;BME280_pressure;Samples;Min_cycle;Max_cycle;Signal;HPM_P1;HPM_P2
2021/05/11 05:06:21;;;;;;;1.37;0.88;;;;;;;11.02;73.15;100555.33;1849466;76;27931;-60
2021/05/11 05:08:55;;;;;;;2.90;0.95;;;;;;;11.02;72.18;100565.80;1820868;77;22811;-58
2021/05/11 05:11:29;;;;;;;0.75;0.70;;;;;;;11.04;72.52;100576.98;1815043;77;21211;-60
2021/05/11 05:14:02;;;;;;;;;;;;;;;11.04;72.02;100590.08;1821115;77;21875;-60
2021/05/11 05:16:35;;;;;;;1.12;1.02;;;;;;;11.00;69.91;100585.59;1811056;77;20313;-58
2021/05/11 05:19:09;;;;;;;1.85;1.15;;;;;;;10.89;68.96;100583.55;1822794;77;21645;-58
2021/05/11 05:21:43;;;;;;;3.72;1.92;;;;;;;10.91;69.53;100606.03;1811165;77;21253;-60
2021/05/11 05:24:21;;;;;;;2.20;1.47;;;;;;;11.27;69.57;100595.52;1816126;77;21308;-65
2021/05/11 05:26:52;;;;;;;1.87;1.10;;;;;;;11.27;69.57;100595.52;1806777;77;21861;-58
2021/05/11 05:29:25;;;;;;;1.60;1.10;;;;;;;11.49;68.68;100586.11;1754662;80;21370;-60
2021/05/11 05:31:58;;;;;;;0.93;0.90;;;;;;;11.57;68.07;100605.11;1762832;80;21200;-58
2021/05/11 05:34:31;;;;;;;;;;;;;;;11.59;66.97;100597.94;1759325;80;21900;-58
2021/05/11 05:37:04;;;;;;;3.20;0.82;;;;;;;11.80;67.04;100607.88;1755927;79;20303;-58
2021/05/11 05:39:42;;;;;;;2.63;0.73;;;;;;;12.18;66.70;100606.14;1755539;80;22138;-59
2021/05/11 05:42:12;;;;;;;0.68;0.68;;;;;;;12.48;64.40;100620.94;1756953;79;21292;-58
2021/05/11 05:44:46;;;;;;;1.25;0.78;;;;;;;12.66;63.44;100616.63;1743688;80;21828;-60
2021/05/11 05:47:19;;;;;;;1.07;0.87;;;;;;;12.76;61.97;100613.98;1758445;80;21208;-58
2021/05/11 05:49:59;;;;;;;0.85;0.62;;;;;;;12.83;60.22;100613.75;1720937;82;21758;-60
2021/05/11 05:52:35;;;;;;;1.20;0.78;;;;;;;12.83;60.40;100615.91;1726181;81;21345;-61
2021/05/11 05:55:02;;;;;;;0.70;0.60;;;;;;;12.86;60.40;100620.05;1723193;81;21290;-62
2021/05/11 05:57:36;;;;;;;0.98;0.40;;;;;;;12.90;57.71;100635.86;1724509;81;21362;-61
2021/05/11 06:00:12;;;;;;;0.62;0.62;;;;;;;12.82;57.13;100639.70;1736579;80;21422;-59
2021/05/11 06:02:46;;;;;;;1.87;0.70;;;;;;;12.65;57.46;100646.98;1749457;80;21294;-63
2021/05/11 06:05:19;;;;;;;0.93;0.60;;;;;;;12.42;57.50;100638.55;1730971;81;21325;-58
2021/05/11 06:07:53;;;;;;;2.80;0.60;;;;;;;12.18;58.16;100648.14;1738244;81;21229;-56
2021/05/11 06:10:30;;;;;;;3.70;2.08;;;;;;;11.98;58.34;100651.72;1729313;81;21439;-59
2021/05/11 06:13:11;;;;;;;0.90;0.80;;;;;;;11.78;58.86;100655.72;1723478;81;21318;-61
2021/05/11 06:18:23;;;;;;;0.55;0.55;;;;;;;11.50;59.43;100668.59;1702279;81;21224;-66
2021/05/11 06:20:56;;;;;;;4.10;0.80;;;;;;;11.36;60.18;100659.77;1732334;81;21298;-66
2021/05/11 06:23:29;;;;;;;1.30;0.90;;;;;;;11.28;61.35;100666.61;1733519;81;21342;-61
2021/05/11 06:26:02;;;;;;;1.87;1.10;;;;;;;11.28;61.65;100671.37;1738715;81;21350;-63
2021/05/11 06:28:38;;;;;;;1.00;1.00;;;;;;;11.25;62.05;100669.00;1733622;81;21748;-61
2021/05/11 06:31:10;;;;;;;0.88;0.75;;;;;;;11.28;62.55;100677.92;1734613;81;21569;-58
2021/05/11 06:33:43;;;;;;;2.42;0.68;;;;;;;11.33;62.00;100675.75;1728563;81;21972;-60
2021/05/11 06:36:16;;;;;;;3.58;1.62;;;;;;;11.56;61.70;100683.45;1733227;81;21759;-57
2021/05/11 06:38:51;;;;;;;3.30;1.67;;;;;;;11.76;61.13;100682.57;1740853;81;21188;-61
2021/05/11 06:41:26;;;;;;;;;;;;;;;11.92;60.45;100681.58;1745558;81;21177;-59
2021/05/11 06:44:05;;;;;;;2.33;1.27;;;;;;;12.16;58.97;100677.63;1732326;81;20226;-58
2021/05/11 06:49:34;;;;;;;2.08;0.65;;;;;;;12.99;57.62;100673.11;1729172;81;21207;-63
2021/05/11 06:54:52;;;;;;;4.37;1.47;;;;;;;13.13;55.47;100683.25;1730095;81;21189;-58
2021/05/11 06:57:26;;;;;;;4.28;1.92;;;;;;;13.11;55.95;100688.30;1725521;81;21356;-60
2021/05/11 07:00:00;;;;;;;2.50;1.57;;;;;;;13.01;54.98;100700.59;1724933;81;21755;-59
2021/05/11 07:02:33;;;;;;;1.98;1.10;;;;;;;12.75;54.31;100697.21;1721085;81;21211;-60
2021/05/11 07:05:06;;;;;;;1.95;1.10;;;;;;;12.51;55.33;100690.73;1726510;81;21386;-61
2021/05/11 07:07:42;;;;;;;2.50;1.20;;;;;;;12.32;56.31;100700.75;1746733;80;22010;-61
2021/05/11 07:10:22;;;;;;;1.92;1.12;;;;;;;12.16;56.45;100700.42;1731456;81;21238;-61
2021/05/11 07:13:13;;;;;;;4.08;1.80;;;;;;;12.07;57.33;100701.23;1762011;80;21191;-67
2021/05/11 07:15:49;;;;;;;5.83;1.62;;;;;;;12.06;58.27;100710.09;1756068;80;21400;-61
2021/05/11 07:18:30;;;;;;;5.03;2.22;;;;;;;12.20;58.82;100700.99;1717659;81;21328;-62
2021/05/11 07:20:59;;;;;;;2.00;1.40;;;;;;;12.36;59.06;100707.84;1719397;81;21718;-61
2021/05/11 07:23:33;;;;;;;2.70;1.37;;;;;;;12.56;58.72;100714.28;1724566;81;21345;-64
2021/05/11 07:29:09;;;;;;;4.03;1.80;;;;;;;12.58;55.25;100728.14;1741587;80;21752;-66
2021/05/11 07:31:38;;;;;;;2.52;1.47;;;;;;;13.72;53.66;100728.94;1737289;81;21208;-64
2021/05/11 07:34:14;;;;;;;5.50;2.25;;;;;;;14.51;52.36;100714.73;1748518;80;21941;-63
2021/05/11 07:36:48;;;;;;;2.50;1.37;;;;;;;14.53;52.06;100729.89;1753457;80;21232;-60
2021/05/11 07:39:24;;;;;;;2.25;1.27;;;;;;;14.23;51.63;100730.21;1757623;80;21338;-61
2021/05/11 07:41:56;;;;;;;10.23;1.98;;;;;;;14.08;52.21;100741.24;1757515;79;21403;-63
2021/05/11 07:44:31;;;;;;;2.25;1.20;;;;;;;13.81;53.10;100729.86;1726593;81;21406;-61
2021/05/11 08:04:21;;;;;;;3.75;1.40;;;;;;;12.94;55.67;100762.09;1719329;81;21413;-59
2021/05/11 08:15:19;;;;;;;4.58;1.57;;;;;;;12.98;57.93;100779.23;1688200;83;21251;-60
2021/05/11 08:17:43;;;;;;;3.60;1.65;;;;;;;12.98;57.10;100773.97;1662008;83;21347;-62
2021/05/11 08:23:36;;;;;;;4.20;1.62;;;;;;;13.56;56.78;100764.23;1694052;83;21344;-66
2021/05/11 08:28:53;;;;;;;5.55;1.45;;;;;;;13.59;55.28;100777.59;1690102;83;21331;-61
2021/05/11 08:31:26;;;;;;;2.65;1.60;;;;;;;13.60;55.05;100779.23;1691051;83;22541;-66
2021/05/11 08:33:59;;;;;;;2.00;1.10;;;;;;;13.64;54.62;100785.38;1699293;82;21291;-61
2021/05/11 08:36:32;;;;;;;3.30;1.60;;;;;;;13.70;53.60;100783.99;1693666;83;22125;-61
2021/05/11 08:39:05;;;;;;;4.20;1.45;;;;;;;13.62;52.96;100783.38;1691922;82;21368;-59
2021/05/11 08:41:38;;;;;;;1.20;1.10;;;;;;;13.43;53.47;100782.95;1680997;83;21449;-60
2021/05/11 08:44:19;;;;;;;2.63;1.80;;;;;;;13.02;55.72;100780.60;1691021;83;21187;-64
2021/05/11 08:46:52;;;;;;;1.50;1.17;;;;;;;13.02;55.72;100780.60;1678936;82;21363;-62
2021/05/11 08:49:25;;;;;;;2.40;1.20;;;;;;;12.87;56.15;100776.75;1680946;83;21377;-65
2021/05/11 08:52:04;;;;;;;3.93;1.20;;;;;;;12.68;57.33;100785.42;1679738;83;21299;-59
2021/05/11 08:54:46;;;;;;;1.30;1.20;;;;;;;12.37;58.01;100807.48;1691992;83;21338;-59
2021/05/11 09:06:22;;;;;;;1.85;1.40;;;;;;;11.47;60.72;100789.92;1678188;82;21232;-59
2021/05/11 09:09:10;;;;;;;2.25;1.30;;;;;;;11.60;60.19;100789.73;1692796;82;21339;-58
2021/05/11 09:23:34;;;;;;;2.52;1.32;;;;;;;13.39;54.62;100788.64;1689982;83;21304;-60
2021/05/11 09:26:12;;;;;;;1.82;1.10;;;;;;;13.03;55.56;100801.98;1687478;83;21299;-58
2021/05/11 09:28:48;;;;;;;2.17;1.10;;;;;;;12.66;57.95;100816.26;1694064;83;21435;-65
2021/05/11 09:31:39;;;;;;;0.93;0.90;;;;;;;12.28;60.21;100838.48;1683213;83;21854;-61
2021/05/11 09:34:17;;;;;;;;;;;;;;;11.93;61.33;100828.39;1694373;83;21734;-61
2021/05/11 09:45:51;;;;;;;6.75;2.72;;;;;;;11.89;62.90;100824.34;1694303;83;21493;-65
2021/05/11 10:40:52;;;;;;;0.90;0.60;;;;;;;12.88;58.32;100788.06;1734638;81;21325;-64
2021/05/11 10:48:36;;;;;;;3.20;0.80;;;;;;;12.87;61.30;100809.59;1735171;81;21312;-60
2021/05/11 10:51:21;;;;;;;1.02;0.70;;;;;;;12.60;61.31;100810.25;1736196;81;22189;-62
2021/05/11 10:54:01;;;;;;;1.05;0.70;;;;;;;12.57;61.64;100801.80;1737067;80;21332;-64
2021/05/11 10:56:45;;;;;;;5.67;0.88;;;;;;;12.76;61.36;100823.68;1735996;81;21173;-64
2021/05/11 11:02:27;;;;;;;1.25;1.02;;;;;;;12.51;66.78;100832.08;1721132;80;21331;-63
2021/05/11 11:04:49;;;;;;;1.15;1.00;;;;;;;12.35;68.12;100830.89;1721048;81;21275;-62
2021/05/11 11:07:36;;;;;;;1.10;0.93;;;;;;;12.29;68.15;100833.59;1723555;81;21353;-60
2021/05/11 11:10:15;;;;;;;2.25;0.88;;;;;;;12.44;68.97;100823.55;1735090;80;23164;-62
2021/05/11 11:12:50;;;;;;;1.07;1.00;;;;;;;12.56;68.40;100833.78;1737789;80;21188;-61
2021/05/11 11:15:23;;;;;;;1.17;0.90;;;;;;;12.57;66.20;100828.89;1743122;81;21326;-63
2021/05/11 11:17:57;;;;;;;1.07;0.95;;;;;;;12.57;64.79;100827.58;1729323;80;21317;-60
2021/05/11 11:20:34;;;;;;;2.25;0.90;;;;;;;12.63;65.65;100834.91;1728724;80;21891;-58
2021/05/11 11:26:03;;;;;;;0.88;0.88;;;;;;;12.81;62.75;100834.61;1733572;81;21204;-62
2021/05/11 11:28:36;;;;;;;0.93;0.85;;;;;;;12.81;62.52;100825.42;1733532;80;21633;-67
2021/05/11 11:31:26;;;;;;;1.73;0.97;;;;;;;12.91;63.29;100827.22;1720226;80;21353;-62
2021/05/11 11:34:24;;;;;;;2.52;0.68;;;;;;;13.01;62.13;100818.86;1733011;81;21321;-62
2021/05/11 11:37:02;;;;;;;1.07;0.75;;;;;;;12.95;61.96;100845.20;1722447;80;21290;-68
2021/05/11 11:39:37;;;;;;;1.17;1.05;;;;;;;12.87;63.39;100835.04;1720238;81;21175;-64
2021/05/11 11:42:39;;;;;;;1.40;1.00;;;;;;;12.86;64.18;100828.95;1746096;80;21362;-62
2021/05/11 11:45:25;;;;;;;1.65;0.90;;;;;;;12.88;64.62;100810.41;1700552;81;21282;-60
2021/05/11 11:48:10;;;;;;;1.98;1.12;;;;;;;12.87;64.50;100804.34;1734892;81;22511;-62
2021/05/11 11:50:38;;;;;;;3.80;1.00;;;;;;;13.00;63.54;100806.20;1729295;81;21806;-63
2021/05/11 11:53:20;;;;;;;1.40;0.70;;;;;;;13.10;62.42;100801.81;1722130;81;21869;-61
2021/05/11 11:58:26;;;;;;;1.15;0.85;;;;;;;13.09;60.92;100806.71;1731754;81;21320;-63
2021/05/11 12:00:59;;;;;;;0.70;0.68;;;;;;;12.93;60.54;100797.20;1739406;81;21269;-60
2021/05/11 12:03:31;;;;;;;1.70;0.65;;;;;;;12.74;60.77;100795.88;1720805;81;21294;-61
2021/05/11 12:06:07;;;;;;;3.20;0.80;;;;;;;12.55;60.33;100812.92;1720368;81;21370;-60
2021/05/11 12:08:40;;;;;;;0.75;0.75;;;;;;;12.39;61.58;100813.45;1729437;81;21300;-59
2021/05/11 12:11:14;;;;;;;2.00;1.30;;;;;;;12.30;63.26;100819.48;1731065;80;21211;-59
2021/05/11 12:13:53;;;;;;;4.37;0.80;;;;;;;12.39;65.03;100814.77;1740091;81;21199;-59
2021/05/11 12:16:27;;;;;;;1.60;1.02;;;;;;;12.39;65.03;100814.77;1732052;80;21746;-60
2021/05/11 12:21:38;;;;;;;0.98;0.90;;;;;;;12.23;65.39;100824.11;1726093;81;21269;-62
2021/05/11 12:24:12;;;;;;;2.02;0.75;;;;;;;12.11;66.70;100827.28;1714861;82;21365;-63
2021/05/11 12:26:46;;;;;;;3.80;1.02;;;;;;;12.06;66.23;100832.12;1722401;81;21647;-59
2021/05/11 12:29:21;;;;;;;2.50;0.70;;;;;;;12.05;66.95;100826.03;1724463;81;22564;-59
2021/05/11 12:31:56;;;;;;;0.67;0.67;;;;;;;12.14;66.09;100808.18;1728320;80;21303;-60
2021/05/11 12:34:30;;;;;;;1.50;0.80;;;;;;;12.14;66.09;100808.18;1725732;81;21212;-60
2021/05/11 12:37:03;;;;;;;0.90;0.80;;;;;;;12.27;65.58;100814.52;1729902;81;21196;-62
2021/05/11 12:42:25;;;;;;;2.15;0.72;;;;;;;12.21;66.32;100816.81;1719144;80;21809;-60
2021/05/11 12:45:14;;;;;;;1.72;0.62;;;;;;;12.11;67.29;100795.78;1736318;81;21345;-64
2021/05/11 12:47:50;;;;;;;1.20;1.00;;;;;;;11.96;68.67;100824.20;1664501;84;21374;-60
2021/05/11 12:50:31;;;;;;;1.12;1.02;;;;;;;11.86;69.73;100840.84;1691360;83;21320;-62
2021/05/11 13:21:02;;;;;;;3.15;1.35;;;;;;;11.66;70.56;100845.11;1682462;83;21245;-60
2021/05/11 13:26:29;;;;;;;4.70;2.25;;;;;;;11.60;67.64;100844.80;1720273;81;21742;-60
2021/05/11 13:29:05;;;;;;;7.00;3.83;;;;;;;11.50;67.33;100840.33;1729662;81;21374;-58
2021/05/11 13:31:46;;;;;;;2.50;1.10;;;;;;;11.44;67.22;100855.72;1731479;80;21337;-60
2021/05/11 13:34:19;;;;;;;3.72;0.40;;;;;;;11.50;66.66;100857.37;1714340;81;21290;-58
2021/05/11 13:36:52;;;;;;;2.12;0.60;;;;;;;11.56;66.49;100859.94;1723476;82;21305;-59
2021/05/11 13:39:24;;;;;;;4.42;0.75;;;;;;;11.53;64.61;100874.14;1721916;81;21727;-63
2021/05/11 13:41:57;;;;;;;2.90;0.72;;;;;;;11.48;63.44;100862.39;1726566;81;21324;-62
2021/05/11 13:44:30;;;;;;;5.40;0.68;;;;;;;11.43;63.06;100882.91;1724778;81;22150;-64
2021/05/11 13:47:04;;;;;;;1.55;0.72;;;;;;;11.34;63.17;100865.32;1726036;80;21969;-61
2021/05/11 13:49:38;;;;;;;2.30;0.47;;;;;;;11.27;63.74;100861.54;1690647;83;21828;-61
2021/05/11 13:52:11;;;;;;;2.60;1.00;;;;;;;11.23;63.41;100856.17;1667524;84;21349;-61
2021/05/11 13:54:45;;;;;;;0.87;0.40;;;;;;;11.21;63.54;100868.11;1722330;82;21298;-62
2021/05/11 14:05:19;;;;;;;12.98;6.15;;;;;;;11.27;63.95;100875.95;1670300;84;21337;-59
2021/05/11 14:07:51;;;;;;;9.48;2.65;;;;;;;11.18;64.26;100859.64;1680668;85;21925;-61
2021/05/11 14:10:26;;;;;;;3.62;0.90;;;;;;;11.10;64.34;100871.25;1697043;83;21184;-59
2021/05/11 14:12:59;;;;;;;1.50;0.88;;;;;;;11.01;64.89;100873.31;1668085;84;21213;-59
2021/05/11 14:15:33;;;;;;;5.58;1.02;;;;;;;10.93;65.18;100878.33;1673001;84;21287;-60
2021/05/11 14:18:05;;;;;;;3.08;1.50;;;;;;;10.89;65.71;100882.95;1658443;84;21192;-60
2021/05/11 14:20:39;;;;;;;2.12;0.60;;;;;;;10.89;65.48;100875.61;1656824;86;21349;-61
2021/05/11 14:23:12;;;;;;;1.53;0.77;;;;;;;10.86;65.81;100864.05;1690973;83;21291;-60
2021/05/11 14:25:46;;;;;;;6.35;2.92;;;;;;;10.86;66.34;100862.27;1672345;84;21976;-60
2021/05/11 14:28:19;;;;;;;13.03;5.15;;;;;;;10.87;66.58;100864.42;1686496;84;21352;-60
2021/05/11 14:30:52;;;;;;;4.78;2.12;;;;;;;10.89;66.85;100867.24;1692303;83;21234;-60
2021/05/11 14:33:26;;;;;;;6.17;2.75;;;;;;;10.86;67.01;100867.52;1671828;83;21208;-61
2021/05/11 14:36:01;;;;;;;2.40;1.35;;;;;;;10.86;66.91;100878.46;1691790;83;21197;-60
2021/05/11 14:38:38;;;;;;;5.47;2.42;;;;;;;10.82;66.49;100870.84;1695340;83;21220;-62
2021/05/11 14:41:11;;;;;;;4.45;1.05;;;;;;;10.74;66.80;100873.73;1682361;84;21161;-60
2021/05/11 14:43:44;;;;;;;4.63;2.17;;;;;;;10.68;67.64;100883.36;1693424;83;21256;-61
2021/05/11 14:46:18;;;;;;;14.93;6.35;;;;;;;10.61;69.02;100890.04;1693816;82;21251;-61
2021/05/11 14:48:53;;;;;;;12.20;5.85;;;;;;;10.54;70.62;100889.70;1678345;84;21368;-62
2021/05/11 14:51:27;;;;;;;8.38;4.00;;;;;;;10.41;72.19;100888.17;1690998;83;21802;-61
2021/05/11 14:54:02;;;;;;;19.83;6.87;;;;;;;10.28;73.44;100895.29;1685002;83;21370;-61
2021/05/11 14:56:39;;;;;;;9.30;3.95;;;;;;;10.18;74.31;100900.40;1685616;83;22177;-60
2021/05/11 14:59:11;;;;;;;3.83;1.70;;;;;;;10.12;75.56;100908.73;1695063;83;21445;-61
2021/05/11 15:01:46;;;;;;;3.25;0.70;;;;;;;10.06;76.29;100913.08;1678887;84;21903;-60
2021/05/11 15:04:20;;;;;;;1.52;0.50;;;;;;;9.99;77.74;100914.48;1685651;83;21240;-60
2021/05/11 15:06:54;;;;;;;0.88;0.65;;;;;;;9.90;78.80;100942.19;1690444;83;21253;-60
2021/05/11 15:09:30;;;;;;;1.17;0.88;;;;;;;9.76;79.70;100935.84;1700879;82;21315;-62
2021/05/11 15:12:06;;;;;;;1.60;0.70;;;;;;;9.56;79.87;100926.02;1677945;83;21224;-61
2021/05/11 15:14:39;;;;;;;0.98;0.50;;;;;;;9.40;80.07;100935.48;1699371;83;21286;-59
2021/05/11 15:19:59;;;;;;;0.50;0.35;;;;;;;9.15;79.84;100936.03;1695967;84;21206;-59
2021/05/11 15:22:32;;;;;;;0.47;0.47;;;;;;;9.08;79.82;100934.81;1696271;83;21304;-59
2021/05/11 15:25:07;;;;;;;0.85;0.75;;;;;;;9.05;79.57;100935.86;1695863;83;21907;-59
2021/05/11 15:27:40;;;;;;;0.78;0.60;;;;;;;9.04;79.29;100947.73;1696248;83;21288;-60
2021/05/11 15:30:16;;;;;;;1.07;0.98;;;;;;;9.05;78.45;100987.29;1694301;83;21218;-60
2021/05/11 15:33:03;;;;;;;1.82;0.82;;;;;;;9.04;78.42;100984.30;1674164;84;21326;-60
2021/05/11 15:35:33;;;;;;;0.30;0.30;;;;;;;9.04;78.03;100955.57;1665765;85;21354;-60
2021/05/11 15:38:07;;;;;;;1.00;0.78;;;;;;;9.03;77.87;100966.98;1667399;85;21309;-61
2021/05/11 15:40:41;;;;;;;0.70;0.60;;;;;;;9.00;77.94;100956.28;1649279;86;21783;-60
2021/05/11 15:43:14;;;;;;;2.37;0.95;;;;;;;9.00;77.93;100971.11;1662598;86;21313;-59
2021/05/11 15:45:48;;;;;;;0.50;0.50;;;;;;;8.99;77.97;100975.48;1651451;86;21207;-59
2021/05/11 15:48:21;;;;;;;0.60;0.57;;;;;;;8.98;77.81;100995.20;1659156;86;21844;-60
2021/05/11 15:50:55;;;;;;;0.62;0.50;;;;;;;8.97;78.05;100978.69;1669320;86;21240;-60
2021/05/11 15:53:29;;;;;;;0.65;0.35;;;;;;;8.96;78.13;100992.67;1655648;86;21243;-60
2021/05/11 15:56:02;;;;;;;0.80;0.80;;;;;;;8.96;78.22;100999.66;1659380;85;21856;-60
2021/05/11 15:58:35;;;;;;;1.77;0.80;;;;;;;8.95;78.52;101007.16;1663070;84;21214;-60
2021/05/11 16:01:08;;;;;;;6.40;1.02;;;;;;;8.95;78.77;101004.08;1655074;84;21305;-60
2021/05/11 16:03:41;;;;;;;0.80;0.70;;;;;;;8.96;78.58;101038.38;1658630;84;21176;-60
2021/05/11 16:06:14;;;;;;;0.93;0.63;;;;;;;8.95;77.35;101038.49;1665601;85;21238;-60
2021/05/11 16:08:47;;;;;;;0.67;0.67;;;;;;;8.94;76.67;101016.76;1695369;83;21953;-60
2021/05/11 16:11:21;;;;;;;1.73;0.93;;;;;;;8.95;76.72;101008.00;1691536;83;22047;-61
2021/05/11 16:13:54;;;;;;;2.47;1.12;;;;;;;8.97;76.49;101020.47;1695814;83;21432;-58
2021/05/11 16:16:27;;;;;;;1.73;0.97;;;;;;;9.00;76.08;101023.34;1695463;83;21319;-61
2021/05/11 16:19:00;;;;;;;1.10;0.60;;;;;;;9.03;76.08;101020.52;1697223;84;21312;-60
2021/05/11 16:21:33;;;;;;;1.32;0.95;;;;;;;9.03;75.83;101034.89;1696968;83;21915;-61
2021/05/11 16:24:08;;;;;;;1.27;0.80;;;;;;;9.06;75.19;101031.58;1696440;83;21224;-60
2021/05/11 16:26:42;;;;;;;1.47;0.78;;;;;;;9.07;74.83;101036.33;1696568;83;21333;-61
2021/05/11 16:29:15;;;;;;;0.90;0.57;;;;;;;9.11;74.93;101053.45;1696047;83;21280;-61
2021/05/11 16:31:49;;;;;;;0.80;0.40;;;;;;;9.14;74.31;101047.55;1692485;83;21908;-61
2021/05/11 16:34:22;;;;;;;0.65;0.40;;;;;;;9.16;74.23;101052.66;1696083;83;21280;-61
2021/05/11 16:36:55;;;;;;;0.40;0.40;;;;;;;9.17;73.97;101068.22;1696035;83;21261;-60
2021/05/11 16:39:29;;;;;;;1.72;0.70;;;;;;;9.17;74.15;101055.16;1696253;84;21372;-60
2021/05/11 16:42:02;;;;;;;0.90;0.80;;;;;;;9.17;74.39;101053.03;1695527;83;21364;-60
2021/05/11 16:44:35;;;;;;;;;;;;;;;9.16;74.81;101053.97;1699936;84;21293;-59
2021/05/11 16:47:08;;;;;;;4.30;1.40;;;;;;;9.15;75.15;101058.81;1696823;83;20231;-60
2021/05/11 16:49:42;;;;;;;1.67;0.70;;;;;;;9.13;75.48;101059.39;1697179;83;21914;-60
2021/05/11 16:52:15;;;;;;;1.07;0.40;;;;;;;9.10;76.05;101059.63;1692622;83;21319;-59
2021/05/11 16:54:49;;;;;;;2.20;0.93;;;;;;;9.10;76.48;101062.25;1676701;84;21292;-60
2021/05/11 16:57:21;;;;;;;;;;;;;;;9.13;76.74;101058.09;1699190;83;21213;-60
2021/05/11 16:59:54;;;;;;;0.93;0.70;;;;;;;9.15;76.90;101058.81;1696422;83;20234;-60
2021/05/11 17:02:27;;;;;;;1.80;0.53;;;;;;;9.16;76.92;101072.25;1691834;84;21914;-60
2021/05/11 17:05:00;;;;;;;0.57;0.50;;;;;;;9.18;76.87;101066.44;1696990;83;21352;-60
2021/05/11 17:07:35;;;;;;;0.60;0.60;;;;;;;9.20;76.99;101071.92;1696685;83;21285;-60
2021/05/11 17:10:10;;;;;;;0.62;0.53;;;;;;;9.22;77.05;101073.11;1697551;84;21336;-60
2021/05/11 17:12:43;;;;;;;1.27;1.00;;;;;;;9.25;76.98;101070.30;1697420;83;21312;-60
2021/05/11 17:15:18;;;;;;;0.68;0.55;;;;;;;9.30;76.99;101083.88;1696810;83;21194;-60
2021/05/11 17:17:51;;;;;;;0.50;0.50;;;;;;;9.35;76.73;101083.08;1697045;84;21222;-59
2021/05/11 17:20:27;;;;;;;0.70;0.60;;;;;;;9.38;76.54;101084.18;1697606;84;21844;-60
2021/05/11 17:23:00;;;;;;;1.07;0.60;;;;;;;9.42;76.88;101100.00;1696630;83;21304;-59
2021/05/11 17:25:33;;;;;;;1.37;1.00;;;;;;;9.42;77.48;101114.38;1696683;83;21303;-61
2021/05/11 17:28:07;;;;;;;1.72;1.15;;;;;;;9.39;78.29;101148.09;1696472;83;21324;-60
2021/05/11 17:30:40;;;;;;;1.12;0.80;;;;;;;9.31;79.19;101143.05;1673957;84;21926;-60
2021/05/11 17:33:14;;;;;;;0.78;0.60;;;;;;;9.17;80.12;101154.42;1699869;83;21295;-59
2021/05/11 17:35:47;;;;;;;1.15;0.72;;;;;;;9.05;80.37;101130.94;1708262;84;21340;-61
2021/05/11 17:38:21;;;;;;;0.53;0.30;;;;;;;8.96;80.95;101140.22;1678939;84;21820;-60
2021/05/11 17:40:56;;;;;;;1.27;0.40;;;;;;;8.89;80.49;101144.66;1695807;83;21340;-60
2021/05/11 17:43:29;;;;;;;0.70;0.40;;;;;;;8.81;80.28;101139.48;1709254;83;21293;-60
2021/05/11 17:46:02;;;;;;;0.93;0.50;;;;;;;8.77;80.55;101144.55;1710499;84;21167;-59
2021/05/11 17:48:37;;;;;;;0.87;0.40;;;;;;;8.75;80.38;101131.23;1702345;83;21705;-60
2021/05/11 17:51:10;;;;;;;2.62;0.95;;;;;;;8.72;80.41;101129.66;1699129;83;21591;-59
2021/05/11 17:53:44;;;;;;;1.85;1.30;;;;;;;8.73;80.53;101139.18;1700082;83;21866;-60
2021/05/11 17:56:17;;;;;;;2.45;0.90;;;;;;;8.75;80.63;101143.82;1704948;83;21360;-59
2021/05/11 17:58:52;;;;;;;1.95;1.07;;;;;;;8.80;80.37;101131.30;1709440;83;21732;-60
2021/05/11 18:01:25;;;;;;;0.73;0.63;;;;;;;8.83;80.36;101136.78;1698140;83;21204;-60
2021/05/11 18:03:58;;;;;;;3.25;0.93;;;;;;;8.86;80.37;101136.55;1699660;83;21303;-60
2021/05/11 18:06:31;;;;;;;2.70;0.98;;;;;;;8.92;80.41;101137.46;1702226;83;21350;-61
2021/05/11 18:09:05;;;;;;;1.37;1.13;;;;;;;8.98;80.52;101136.22;1696232;83;21831;-60
2021/05/11 18:11:38;;;;;;;0.72;0.70;;;;;;;9.05;80.17;101142.20;1703252;83;21828;-60
2021/05/11 18:14:11;;;;;;;3.60;1.40;;;;;;;9.12;79.89;101152.59;1712793;84;21293;-60
2021/05/11 18:16:46;;;;;;;3.37;0.80;;;;;;;9.19;79.39;101135.59;1698566;83;21293;-60
2021/05/11 18:19:20;;;;;;;1.10;0.98;;;;;;;9.26;78.90;101142.52;1702442;83;21265;-61
2021/05/11 18:21:53;;;;;;;0.60;0.60;;;;;;;9.30;78.26;101147.89;1709422;83;21176;-60
2021/05/11 18:24:28;;;;;;;;;;;;;;;9.36;77.92;101148.79;1698037;83;21327;-61
2021/05/11 18:27:03;;;;;;;1.05;0.65;;;;;;;9.39;77.57;101141.55;1699276;83;20637;-60
2021/05/11 18:29:37;;;;;;;0.50;0.50;;;;;;;9.41;77.14;101152.73;1696112;83;21195;-59
2021/05/11 18:32:12;;;;;;;1.82;1.00;;;;;;;9.43;76.64;101176.17;1695905;83;21172;-60
2021/05/11 18:34:46;;;;;;;1.15;0.60;;;;;;;9.45;76.25;101162.05;1699901;83;21301;-59
2021/05/11 18:38:04;;;;;;;0.57;0.57;;;;;;;9.47;76.13;101157.55;1695715;83;21176;-59
2021/05/11 18:39:56;;;;;;;1.95;0.85;;;;;;;9.48;75.54;101167.54;1692767;83;21295;-59
2021/05/11 18:42:32;;;;;;;1.22;1.05;;;;;;;9.48;75.28;101176.19;1698485;83;21296;-59
2021/05/11 18:45:06;;;;;;;2.08;1.20;;;;;;;9.49;74.97;101167.42;1702429;83;21242;-59
2021/05/11 18:47:40;;;;;;;1.50;1.10;;;;;;;9.49;74.62;101162.20;1710372;83;21232;-59
2021/05/11 18:50:13;;;;;;;1.85;0.60;;;;;;;9.50;74.10;101180.84;1702330;83;21174;-60
2021/05/11 18:52:46;;;;;;;0.62;0.50;;;;;;;9.50;74.10;101180.84;1697397;83;21307;-59
2021/05/11 18:55:20;;;;;;;0.90;0.60;;;;;;;9.49;74.17;101179.19;1702702;83;21846;-59
2021/05/11 18:57:53;;;;;;;2.12;0.60;;;;;;;9.52;74.44;101175.98;1707016;83;21296;-60
2021/05/11 19:00:26;;;;;;;2.27;1.10;;;;;;;9.51;74.93;101163.38;1712836;84;21313;-59
2021/05/11 19:02:59;;;;;;;0.93;0.57;;;;;;;9.52;75.19;101178.59;1700526;83;21252;-60
2021/05/11 19:05:32;;;;;;;1.00;0.60;;;;;;;9.51;75.22;101175.14;1698708;83;21291;-60
2021/05/11 19:08:06;;;;;;;1.20;0.60;;;;;;;9.50;75.14;101166.95;1703521;83;21288;-60
2021/05/11 19:10:39;;;;;;;1.27;0.88;;;;;;;9.49;74.94;101179.19;1699114;83;21810;-59
2021/05/11 19:13:14;;;;;;;0.93;0.50;;;;;;;9.47;74.69;101198.53;1696292;83;21730;-60
2021/05/11 19:15:47;;;;;;;0.90;0.60;;;;;;;9.43;74.51;101169.63;1701599;83;21338;-61
2021/05/11 19:18:21;;;;;;;0.60;0.53;;;;;;;9.40;74.16;101192.89;1697480;83;21727;-59
2021/05/11 19:20:54;;;;;;;0.47;0.47;;;;;;;9.37;74.32;101196.17;1703135;83;21303;-59
2021/05/11 19:23:33;;;;;;;0.75;0.62;;;;;;;9.34;74.17;101190.69;1703671;83;21235;-60
2021/05/11 19:26:09;;;;;;;0.88;0.50;;;;;;;9.32;73.65;101191.73;1711158;84;21293;-60
2021/05/11 19:28:44;;;;;;;0.62;0.40;;;;;;;9.29;73.81;101184.12;1700279;83;21279;-59
2021/05/11 19:31:17;;;;;;;0.62;0.50;;;;;;;9.27;73.60;101185.98;1697267;83;21192;-59
2021/05/11 19:33:53;;;;;;;0.63;0.60;;;;;;;9.25;73.59;101230.52;1707424;83;21821;-59
2021/05/11 19:36:32;;;;;;;0.80;0.60;;;;;;;9.26;73.61;101202.62;1710305;84;21867;-59
2021/05/11 19:39:00;;;;;;;0.62;0.30;;;;;;;9.25;73.99;101217.45;1702342;83;21320;-59
2021/05/11 19:41:33;;;;;;;0.70;0.70;;;;;;;9.24;74.19;101218.88;1700954;83;21835;-60
2021/05/11 19:44:07;;;;;;;0.88;0.50;;;;;;;9.23;74.01;101213.27;1709454;84;21329;-60
2021/05/11 19:46:42;;;;;;;0.70;0.60;;;;;;;9.21;73.58;101230.37;1700025;83;21164;-60
2021/05/11 19:49:15;;;;;;;0.30;0.30;;;;;;;9.19;73.39;101202.20;1707567;83;21301;-61
2021/05/11 19:51:48;;;;;;;0.70;0.47;;;;;;;9.17;73.64;101207.17;1705512;83;21289;-61
2021/05/11 19:54:24;;;;;;;1.02;0.60;;;;;;;9.15;73.71;101201.19;1707520;83;21777;-59
2021/05/11 19:56:57;;;;;;;1.22;0.40;;;;;;;9.12;73.76;101208.76;1697912;83;21276;-59
2021/05/11 19:59:31;;;;;;;0.65;0.42;;;;;;;9.09;73.54;101199.00;1702933;83;21283;-59
2021/05/11 20:02:04;;;;;;;1.30;0.60;;;;;;;9.08;73.42;101196.85;1708560;83;21333;-60
2021/05/11 20:04:37;;;;;;;1.27;0.80;;;;;;;9.07;73.46;101198.28;1680341;84;21894;-59
2021/05/11 20:07:14;;;;;;;0.75;0.55;;;;;;;9.03;73.67;101191.59;1712695;84;21714;-59
2021/05/11 20:09:45;;;;;;;0.80;0.75;;;;;;;9.02;73.75;101197.28;1703825;83;21248;-59
2021/05/11 20:12:20;;;;;;;0.50;0.50;;;;;;;8.99;73.93;101209.69;1705408;83;21267;-59
2021/05/11 20:14:53;;;;;;;0.42;0.42;;;;;;;8.96;74.12;101207.28;1705278;83;21267;-59